createdAt,value
2024-04-06T06:34:23.535Z,500.83
2024-04-06T06:45:37.338Z,1302.5
2024-04-06T06:55:14.703Z,1204.17
2024-04-06T07:04:51.712Z,1025.83
2024-04-06T07:14:29.467Z,1369.17
2024-04-06T07:24:06.888Z,1075
2024-04-06T07:33:44.422Z,903.33
2024-04-06T07:43:23.452Z,472.5
2024-04-06T07:53:07.089Z,472.5
2024-04-06T08:02:45.964Z,480
2024-04-06T08:12:23.968Z,457.5
2024-04-06T08:22:02.242Z,404.17
2024-04-06T08:31:39.539Z,412.5
2024-04-06T08:41:17.498Z,407.5
2024-04-06T08:50:55.176Z,386.67
2024-04-06T09:00:32.231Z,358.33
2024-04-06T09:19:47.095Z,247.5
2024-04-06T09:29:24.195Z,254.17
2024-04-06T09:39:01.615Z,231.67
2024-04-06T09:48:39.113Z,235
2024-04-06T09:58:17.507Z,198.33
2024-04-06T10:07:54.962Z,219.17
2024-04-06T10:17:32.598Z,170
2024-04-06T10:27:10.248Z,15524.17
2024-04-06T10:37:23.119Z,23452.5
2024-04-06T10:47:10.628Z,29795
2024-04-06T10:56:53.073Z,31173.33
2024-04-06T11:06:39.073Z,42080.83
2024-04-06T11:16:17.747Z,44518.33
2024-04-06T11:25:56.033Z,40155.83
2024-04-06T11:35:36.200Z,40149.16
2024-04-06T11:45:17.748Z,44300.83
2024-04-06T11:54:59.168Z,47740.83
2024-04-06T12:04:42.790Z,50761.66
2024-04-06T12:14:20.985Z,44268.33
2024-04-06T12:23:53.258Z,22300.83
2024-04-06T12:33:24.813Z,19705
2024-04-06T12:43:19.530Z,42388.33
2024-04-06T12:53:02.335Z,48317.5
2024-04-06T13:02:43.671Z,43255
2024-04-06T13:12:21.519Z,39816.66
2024-04-06T13:21:59.986Z,35940
2024-04-06T13:31:39.520Z,38426.66
2024-04-06T13:50:57.696Z,34081.66
2024-04-06T14:00:36.073Z,30437.5
2024-04-06T14:10:12.880Z,28227.5
2024-04-06T14:19:55.037Z,26577.5
2024-04-06T14:29:32.112Z,25680.83
2024-04-06T14:39:11.674Z,19294.17
2024-04-06T14:48:44.904Z,6711.67
2024-04-06T14:58:11.343Z,14730.83
2024-04-06T15:08:04.483Z,16608.33
2024-04-06T15:17:45.720Z,13680.83
2024-04-06T15:27:17.280Z,8510.83
2024-04-06T15:36:50.317Z,10510.83
2024-04-06T15:46:21.986Z,6195
2024-04-06T15:55:48.487Z,2737.5
2024-04-06T16:05:18.652Z,2201.67
2024-04-06T16:14:54.157Z,1935
2024-04-06T16:24:31.240Z,2192.5
2024-04-06T16:34:07.412Z,1586.67
2024-04-06T16:43:42.789Z,1067.5
2024-04-06T16:53:19.054Z,832.5
2024-04-06T17:02:54.897Z,655
2024-04-06T17:12:31.410Z,515.83
2024-04-06T17:22:09.671Z,378.33
2024-04-06T17:31:43.675Z,241.67
2024-04-06T17:41:19.959Z,130
2024-04-06T17:50:56.418Z,50
2024-04-06T18:00:33.139Z,18.33
2024-04-06T18:10:09.700Z,5
2024-04-06T18:19:46.992Z,0.83
2024-04-06T18:29:23.730Z,0
2024-04-06T18:39:00.496Z,0
2024-04-06T18:48:36.836Z,0
2024-04-06T18:58:13.692Z,0
2024-04-06T19:07:51.010Z,0
2024-04-06T19:17:27.970Z,0
2024-04-06T19:27:04.990Z,0
2024-04-06T19:36:42.630Z,0
2024-04-06T19:46:19.667Z,0
2024-04-06T19:55:57.103Z,0
2024-04-06T20:05:34.253Z,0
2024-04-06T20:15:11.988Z,0
2024-04-06T20:24:49.263Z,0
2024-04-06T20:34:26.514Z,0
2024-04-06T20:44:04.101Z,0
2024-04-06T20:53:41.122Z,0
2024-04-06T21:03:18.790Z,0
2024-04-06T21:12:56.010Z,0
2024-04-06T21:22:33.469Z,0
2024-04-06T21:32:10.492Z,0
2024-04-06T21:41:46.313Z,0
2024-04-06T21:51:23.458Z,0
2024-04-06T22:01:00.341Z,0
2024-04-06T22:10:37.184Z,0
2024-04-06T22:20:14.270Z,0
2024-04-06T22:29:50.756Z,0
2024-04-06T22:39:28.028Z,0
2024-04-06T22:49:04.765Z,0
2024-04-06T22:58:29.846Z,0
2024-04-06T23:08:06.479Z,0
2024-04-06T23:17:44.131Z,0
2024-04-06T23:27:20.973Z,0
2024-04-06T23:37:00.693Z,0
2024-04-06T23:46:34.737Z,0
2024-04-06T23:56:11.852Z,0
